Time;durP1;ratioP1;P1;durP2;ratioP2;P2;SDS_P1;SDS_P2;PMS_P1;PMS_P2;Temp;Humidity;BMP_temperature;BMP_pressure;BME280_temperature;BME280_humidity;BME280_pressure;Samples;Min_cycle;Max_cycle;Signal;HPM_P1;HPM_P2
2022/09/17 00:02:54;;;;;;;1.27;1.00;;;;;;;20.00;60.81;96378.75;10549783;28;20047;-28
2022/09/17 00:07:54;;;;;;;1.38;1.10;;;;;;;20.09;60.83;96388.03;10552086;28;20714;-29
2022/09/17 00:12:55;;;;;;;1.73;1.07;;;;;;;20.11;60.59;96389.66;10554445;28;20408;-28
2022/09/17 00:17:57;;;;;;;1.87;1.07;;;;;;;20.07;60.86;96394.81;10551232;28;20384;-29
2022/09/17 00:22:57;;;;;;;1.55;0.90;;;;;;;20.14;60.96;96398.97;10550739;28;20032;-28
2022/09/17 00:27:57;;;;;;;0.80;0.60;;;;;;;20.15;61.36;96401.50;10558990;28;20040;-28
2022/09/17 00:32:58;;;;;;;1.48;0.90;;;;;;;20.14;60.95;96406.59;10553441;28;20120;-28
2022/09/17 00:37:58;;;;;;;0.90;0.80;;;;;;;20.15;60.63;96410.81;10549404;28;20036;-31
2022/09/17 00:42:59;;;;;;;0.68;0.68;;;;;;;20.11;60.58;96409.16;10552769;28;20286;-28
2022/09/17 00:48:02;;;;;;;1.50;1.13;;;;;;;20.08;60.82;96404.13;10535520;28;20035;-28
2022/09/17 00:53:14;;;;;;;1.00;0.80;;;;;;;20.05;60.81;96401.59;10538245;28;20300;-28
2022/09/17 00:58:17;;;;;;;0.80;0.75;;;;;;;20.06;60.90;96403.28;10550987;28;20399;-28
2022/09/17 01:03:18;;;;;;;0.73;0.73;;;;;;;20.07;60.81;96413.44;10552879;28;20228;-28
2022/09/17 01:08:28;;;;;;;2.58;0.80;;;;;;;20.08;60.64;96416.84;10550443;28;20557;-29
2022/09/17 01:13:47;;;;;;;1.10;0.60;;;;;;;20.10;60.92;96427.81;10547678;28;20510;-29
2022/09/17 01:19:24;;;;;;;1.45;0.80;;;;;;;20.13;60.68;96425.25;10543064;28;20100;-28
2022/09/17 01:24:47;;;;;;;2.08;0.63;;;;;;;20.16;60.71;96432.81;10547673;28;20036;-28
2022/09/17 01:30:02;;;;;;;1.30;0.80;;;;;;;20.19;60.45;96445.50;10551508;28;20035;-28
2022/09/17 01:35:42;;;;;;;0.70;0.70;;;;;;;20.14;60.59;96445.56;10553083;28;20047;-28
2022/09/17 01:41:06;;;;;;;0.82;0.80;;;;;;;20.09;60.67;96446.47;10493837;28;20620;-28
2022/09/17 01:46:19;;;;;;;0.55;0.55;;;;;;;20.06;60.61;96441.41;10536796;28;20134;-28
2022/09/17 01:51:25;;;;;;;2.53;0.80;;;;;;;20.04;60.88;96443.09;10547874;28;20518;-29
2022/09/17 01:56:35;;;;;;;0.98;0.75;;;;;;;20.03;60.93;96451.59;10553134;28;20109;-28
2022/09/17 02:01:38;;;;;;;1.10;0.50;;;;;;;20.04;60.89;96450.72;10552174;28;20036;-28
2022/09/17 02:06:44;;;;;;;1.70;1.00;;;;;;;20.07;60.78;96443.94;10552136;28;20036;-30
2022/09/17 02:11:51;;;;;;;1.30;0.68;;;;;;;20.08;60.67;96437.19;10559144;28;20157;-28
2022/09/17 02:17:00;;;;;;;0.70;0.60;;;;;;;20.07;60.17;96446.47;10552907;28;20034;-28
2022/09/17 02:22:21;;;;;;;1.38;0.75;;;;;;;20.16;60.26;96445.53;10556049;28;20118;-28
2022/09/17 02:27:33;;;;;;;0.75;0.60;;;;;;;20.17;59.97;96442.16;10564213;28;20036;-28
2022/09/17 02:32:34;;;;;;;1.13;0.63;;;;;;;20.14;60.26;96449.78;10551451;28;20035;-27
2022/09/17 02:37:34;;;;;;;0.77;0.60;;;;;;;20.08;60.41;96442.25;10554259;28;20034;-28
2022/09/17 02:43:08;;;;;;;0.50;0.50;;;;;;;20.05;60.77;96442.25;10557559;28;20043;-29
2022/09/17 02:48:21;;;;;;;0.70;0.60;;;;;;;20.03;60.77;96438.88;10555181;28;20038;-29
2022/09/17 02:53:34;;;;;;;0.88;0.80;;;;;;;20.02;60.62;96442.28;10556415;28;20043;-28
2022/09/17 02:58:43;;;;;;;0.68;0.60;;;;;;;20.02;60.85;96445.63;10557307;28;20177;-27
2022/09/17 03:03:45;;;;;;;0.93;0.60;;;;;;;20.05;60.74;96447.34;10560534;28;20073;-28
2022/09/17 03:08:46;;;;;;;0.98;0.60;;;;;;;20.07;60.17;96455.78;10554942;28;20403;-28
2022/09/17 03:13:46;;;;;;;1.63;0.90;;;;;;;20.09;59.89;96451.56;10554976;28;20024;-28
2022/09/17 03:18:47;;;;;;;1.10;0.50;;;;;;;20.14;59.95;96445.56;10548463;28;20032;-27
2022/09/17 03:23:47;;;;;;;1.23;0.60;;;;;;;20.11;60.03;96453.19;10552728;27;20478;-28
2022/09/17 03:28:47;;;;;;;0.87;0.47;;;;;;;20.09;60.43;96452.38;10555333;28;20029;-28
2022/09/17 03:33:49;;;;;;;0.60;0.50;;;;;;;20.07;60.40;96459.19;10557045;28;20495;-28
2022/09/17 03:38:54;;;;;;;0.50;0.50;;;;;;;20.03;60.71;96460.03;10552023;28;20035;-28
2022/09/17 03:43:55;;;;;;;0.63;0.50;;;;;;;20.01;60.68;96461.75;10555746;28;20032;-28
2022/09/17 03:48:55;;;;;;;0.63;0.63;;;;;;;19.99;60.74;96458.41;10559218;28;20031;-29
2022/09/17 03:53:55;;;;;;;0.83;0.50;;;;;;;19.99;60.64;96472.78;10541233;28;20285;-28
2022/09/17 03:58:58;;;;;;;0.47;0.47;;;;;;;20.00;60.86;96479.56;10554271;28;20024;-28
2022/09/17 04:03:58;;;;;;;0.73;0.50;;;;;;;20.04;60.55;96487.19;10556148;28;20040;-29
2022/09/17 04:08:59;;;;;;;0.40;0.33;;;;;;;20.07;59.73;96488.84;10552374;28;20028;-29
2022/09/17 04:14:00;;;;;;;3.28;0.75;;;;;;;20.12;59.79;96487.09;10555461;28;20122;-29
2022/09/17 04:19:00;;;;;;;0.90;0.50;;;;;;;20.12;59.53;96490.50;10550336;28;20122;-27
2022/09/17 04:24:01;;;;;;;1.03;0.80;;;;;;;20.11;59.84;96490.50;10554089;28;20427;-28
2022/09/17 04:29:01;;;;;;;0.88;0.60;;;;;;;20.08;60.24;96490.53;10551670;28;20564;-27
2022/09/17 04:34:02;;;;;;;0.45;0.40;;;;;;;20.03;60.46;96494.78;10551050;28;20035;-28
2022/09/17 04:39:02;;;;;;;0.75;0.50;;;;;;;20.02;60.71;96495.66;10555494;28;20036;-28
2022/09/17 04:44:03;;;;;;;0.53;0.50;;;;;;;20.01;60.75;96496.50;10554611;28;20039;-27
2022/09/17 04:49:03;;;;;;;0.50;0.50;;;;;;;20.02;60.78;96498.19;10546434;28;20662;-29
2022/09/17 04:54:03;;;;;;;0.47;0.40;;;;;;;20.01;60.71;96501.59;10541752;28;20039;-28
2022/09/17 04:59:04;;;;;;;0.60;0.50;;;;;;;19.99;60.60;96504.13;10555451;28;20032;-27
2022/09/17 05:04:04;;;;;;;0.70;0.57;;;;;;;20.01;60.54;96510.03;10554618;28;20032;-28
2022/09/17 05:09:05;;;;;;;1.83;0.50;;;;;;;20.09;59.74;96504.94;10551769;28;20325;-30
2022/09/17 05:14:06;;;;;;;1.13;0.57;;;;;;;20.10;59.49;96509.16;10557538;28;20846;-28
2022/09/17 05:19:07;;;;;;;1.17;0.63;;;;;;;20.07;59.20;96510.03;10556651;28;20049;-27
2022/09/17 05:24:08;;;;;;;0.60;0.50;;;;;;;20.06;60.10;96508.34;10549960;28;20042;-29
2022/09/17 05:29:08;;;;;;;0.52;0.50;;;;;;;20.08;59.42;96518.50;10529423;28;20036;-28
2022/09/17 05:34:08;;;;;;;0.93;0.50;;;;;;;20.14;59.29;96524.34;10550647;28;20036;-27
2022/09/17 05:39:09;;;;;;;0.57;0.30;;;;;;;20.19;58.66;96531.94;10545558;28;20442;-28
2022/09/17 05:44:09;;;;;;;0.50;0.40;;;;;;;20.22;59.05;96532.75;10560791;28;20287;-27
2022/09/17 05:49:09;;;;;;;1.10;0.40;;;;;;;20.24;59.37;96533.56;10559166;28;20036;-28
2022/09/17 05:54:10;;;;;;;0.90;0.60;;;;;;;20.22;59.15;96547.16;10557135;28;20036;-27
2022/09/17 05:59:11;;;;;;;4.17;0.70;;;;;;;20.27;59.12;96551.31;10558903;28;20073;-27
2022/09/17 06:04:11;;;;;;;1.73;0.57;;;;;;;20.31;58.91;96557.22;10561239;28;20118;-28
2022/09/17 06:09:12;;;;;;;4.10;0.87;;;;;;;20.15;55.81;96555.69;10557464;28;20024;-28
2022/09/17 06:14:13;;;;;;;2.33;0.40;;;;;;;20.28;59.18;96562.34;10562471;28;20277;-28
2022/09/17 06:19:13;;;;;;;1.58;0.50;;;;;;;20.31;59.14;96567.41;10559052;28;20019;-27
2022/09/17 06:24:13;;;;;;;4.63;0.90;;;;;;;20.33;59.28;96558.91;10556812;28;20126;-27
2022/09/17 06:29:14;;;;;;;5.97;2.17;;;;;;;20.40;59.19;96566.44;10559447;28;20032;-28
2022/09/17 06:34:15;;;;;;;6.53;1.33;;;;;;;20.10;56.28;96568.44;10551841;28;20072;-27
2022/09/17 06:39:16;;;;;;;6.22;1.50;;;;;;;19.87;55.56;96587.25;10558326;28;20035;-27
2022/09/17 06:44:16;;;;;;;3.22;1.33;;;;;;;19.93;57.10;96589.75;10554426;28;20041;-28
2022/09/17 06:49:17;;;;;;;4.50;1.70;;;;;;;19.94;56.97;96597.34;10541797;28;20040;-28
2022/09/17 06:54:18;;;;;;;3.85;1.70;;;;;;;19.92;56.97;96601.59;10546464;28;20040;-27
2022/09/17 06:59:18;;;;;;;4.87;2.10;;;;;;;19.92;57.29;96603.31;10557651;28;20036;-28
2022/09/17 07:04:18;;;;;;;4.23;1.60;;;;;;;19.89;57.19;96603.31;10533798;28;20039;-27
2022/09/17 07:09:19;;;;;;;7.05;2.05;;;;;;;20.01;57.82;96593.06;10532920;28;20294;-27
2022/09/17 07:14:20;;;;;;;6.23;1.93;;;;;;;20.16;58.35;96598.03;10532096;28;20028;-29
2022/09/17 07:19:20;;;;;;;5.63;1.85;;;;;;;20.24;58.51;96603.91;10547050;28;20529;-27
2022/09/17 07:24:20;;;;;;;11.53;5.90;;;;;;;20.26;56.40;96604.75;10541423;28;20404;-27
2022/09/17 07:29:22;;;;;;;6.27;2.83;;;;;;;20.22;53.61;96603.06;10550648;28;20294;-28
2022/09/17 07:34:22;;;;;;;2.67;1.60;;;;;;;20.11;54.93;96604.88;10557639;28;20031;-27
2022/09/17 07:39:22;;;;;;;8.33;2.10;;;;;;;20.25;56.18;96610.69;10552982;28;20027;-27
2022/09/17 07:44:23;;;;;;;6.82;2.17;;;;;;;20.30;57.13;96616.56;10555232;28;20039;-27
2022/09/17 07:49:23;;;;;;;10.30;3.08;;;;;;;20.30;57.95;96616.56;10521806;28;20498;-27
2022/09/17 07:54:24;;;;;;;5.27;2.17;;;;;;;20.27;57.19;96617.44;10505246;28;20032;-28
2022/09/17 07:59:24;;;;;;;13.13;2.17;;;;;;;20.28;58.03;96616.56;10524562;28;20027;-28
2022/09/17 08:04:24;;;;;;;8.53;2.20;;;;;;;20.27;57.81;96616.59;10524410;28;20552;-27
2022/09/17 08:09:25;;;;;;;6.23;2.40;;;;;;;20.29;58.50;96625.91;10530129;28;20488;-28
2022/09/17 08:14:25;;;;;;;4.70;2.27;;;;;;;20.25;58.96;96624.22;10551211;28;20277;-27
2022/09/17 08:19:29;;;;;;;12.70;2.40;;;;;;;20.25;57.51;96631.03;10529295;28;20050;-28
2022/09/17 08:24:29;;;;;;;6.50;2.10;;;;;;;20.22;57.51;96628.50;10551527;28;20055;-27
2022/09/17 08:29:29;;;;;;;9.60;2.30;;;;;;;20.26;55.55;96627.63;10552767;28;20127;-27
2022/09/17 08:34:30;;;;;;;12.43;2.80;;;;;;;20.26;54.80;96630.19;10552281;28;20047;-28
2022/09/17 08:39:30;;;;;;;4.18;1.58;;;;;;;20.25;57.52;96621.69;10528827;28;20036;-28
2022/09/17 08:44:39;;;;;;;6.70;1.90;;;;;;;20.27;57.96;96616.59;10534793;28;20525;-29
2022/09/17 08:49:53;;;;;;;10.88;1.88;;;;;;;20.11;56.51;96626.03;10530105;28;20039;-27
2022/09/17 08:55:16;;;;;;;8.38;1.88;;;;;;;20.17;58.02;96640.41;10519287;28;20111;-27
2022/09/17 09:00:19;;;;;;;9.00;2.15;;;;;;;20.16;57.87;96653.97;10521788;28;20491;-27
2022/09/17 09:05:24;;;;;;;4.68;1.63;;;;;;;20.10;58.25;96657.41;10548623;28;20024;-28
2022/09/17 09:10:27;;;;;;;41.13;24.42;;;;;;;19.89;56.50;96649.03;10553233;28;20042;-29
2022/09/17 09:15:47;;;;;;;64.63;46.38;;;;;;;19.82;53.81;96662.63;10566573;28;20104;-30
2022/09/17 09:21:17;;;;;;;62.97;44.15;;;;;;;19.95;53.36;96659.19;10548312;28;20052;-27
2022/09/17 09:26:20;;;;;;;74.28;48.80;;;;;;;19.96;53.16;96660.88;10556446;28;20079;-27
2022/09/17 09:31:37;;;;;;;108.93;67.53;;;;;;;19.97;52.69;96660.00;10558679;27;20560;-27
2022/09/17 09:36:38;;;;;;;86.10;47.67;;;;;;;19.98;55.56;96669.31;10558689;28;20051;-28
2022/09/17 09:41:44;;;;;;;71.20;39.90;;;;;;;19.89;52.90;96664.28;10545326;28;20115;-28
2022/09/17 09:47:11;;;;;;;63.13;36.90;;;;;;;20.00;57.16;96662.53;10565374;27;20028;-28
2022/09/17 09:52:39;;;;;;;57.33;31.80;;;;;;;20.00;57.60;96663.38;10563210;27;20040;-27
2022/09/17 09:57:45;;;;;;;57.70;35.38;;;;;;;20.06;57.99;96658.28;10552422;28;20040;-27
2022/09/17 10:02:46;;;;;;;;;;;;;;;20.13;57.70;96665.03;10557174;27;20031;-27
2022/09/17 10:07:46;;;;;;;73.43;44.25;;;;;;;20.19;57.88;96674.28;10547988;27;19916;-27
2022/09/17 10:12:46;;;;;;;56.08;35.85;;;;;;;20.14;58.09;96676.88;10546686;27;20036;-26
2022/09/17 10:17:48;;;;;;;54.85;34.47;;;;;;;20.15;58.08;96682.78;10534954;28;20040;-28
2022/09/17 10:22:49;;;;;;;60.87;35.40;;;;;;;20.13;58.34;96679.41;10553158;28;20040;-27
2022/09/17 10:27:49;;;;;;;52.83;31.48;;;;;;;20.14;58.60;96689.59;10559854;28;20078;-28
2022/09/17 10:33:13;;;;;;;52.75;33.28;;;;;;;20.10;58.76;96681.97;10550897;28;20020;-27
2022/09/17 10:38:31;;;;;;;57.13;33.47;;;;;;;20.10;59.26;96680.28;10555436;28;20038;-27
2022/09/17 10:43:32;;;;;;;50.33;32.20;;;;;;;20.12;58.93;96677.72;10556817;28;20069;-28
2022/09/17 10:48:45;;;;;;;57.13;33.42;;;;;;;20.11;59.20;96691.28;10554559;28;20457;-27
2022/09/17 10:54:18;;;;;;;56.42;33.78;;;;;;;20.16;58.92;96674.28;10549741;28;20114;-28
2022/09/17 10:59:37;;;;;;;52.95;33.95;;;;;;;20.19;59.00;96676.84;10553455;28;20032;-27
2022/09/17 11:05:19;;;;;;;45.92;28.27;;;;;;;20.12;58.97;96672.66;10558759;28;20591;-28
2022/09/17 11:10:30;;;;;;;44.28;26.25;;;;;;;20.13;59.10;96674.31;10547568;28;20036;-28
2022/09/17 11:16:01;;;;;;;44.50;27.83;;;;;;;20.13;59.16;96674.31;10546303;28;20028;-27
2022/09/17 11:21:28;;;;;;;37.47;26.30;;;;;;;20.13;59.36;96664.16;10545281;28;20524;-27
2022/09/17 11:26:37;;;;;;;36.95;25.02;;;;;;;20.12;59.41;96672.66;10558586;27;20044;-28
2022/09/17 11:32:06;;;;;;;38.22;25.10;;;;;;;20.14;59.33;96668.38;10541559;28;20533;-27
2022/09/17 11:37:13;;;;;;;37.25;23.52;;;;;;;20.12;59.56;96672.66;10555952;28;20080;-28
2022/09/17 11:42:19;;;;;;;27.73;15.48;;;;;;;19.97;57.24;96672.72;10553945;28;20607;-27
2022/09/17 11:47:29;;;;;;;39.42;21.88;;;;;;;20.15;58.66;96685.31;10550993;28;20040;-27
2022/09/17 11:52:44;;;;;;;41.83;24.05;;;;;;;20.15;58.99;96681.09;10517309;28;20032;-28
2022/09/17 11:57:48;;;;;;;33.15;20.98;;;;;;;20.10;59.39;96684.53;10532661;28;20476;-27
2022/09/17 12:03:09;;;;;;;49.08;21.92;;;;;;;20.15;59.36;96675.16;10537535;28;20090;-28
2022/09/17 12:08:17;;;;;;;41.28;20.35;;;;;;;20.09;59.73;96673.50;10529126;28;20028;-29
2022/09/17 12:13:23;;;;;;;37.35;20.50;;;;;;;20.10;59.58;96664.19;10537640;28;20027;-29
2022/09/17 12:18:53;;;;;;;42.70;20.85;;;;;;;20.12;59.85;96662.47;10527649;28;20397;-29
2022/09/17 12:24:02;;;;;;;38.00;20.08;;;;;;;20.10;59.95;96659.94;10504153;28;20546;-28
2022/09/17 12:29:32;;;;;;;25.15;16.05;;;;;;;20.10;59.17;96654.03;10529676;28;20031;-28
2022/09/17 12:34:52;;;;;;;32.38;17.27;;;;;;;20.20;58.85;96658.19;10514809;28;20416;-29
2022/09/17 12:40:25;;;;;;;38.75;18.27;;;;;;;20.28;59.11;96657.25;10531789;28;20040;-29
2022/09/17 12:45:43;;;;;;;28.75;18.92;;;;;;;20.23;59.50;96660.69;10520609;28;20416;-29
2022/09/17 12:51:02;;;;;;;27.48;16.23;;;;;;;20.19;59.71;96652.25;10519242;28;20500;-29
2022/09/17 12:56:16;;;;;;;28.77;16.23;;;;;;;20.25;59.68;96656.47;10534187;28;20072;-28
2022/09/17 13:01:45;;;;;;;28.27;16.48;;;;;;;20.20;59.52;96642.94;10538655;28;20493;-28
2022/09/17 13:06:58;;;;;;;28.55;15.88;;;;;;;20.25;59.87;96636.13;10528671;28;20033;-28
2022/09/17 13:12:13;;;;;;;23.33;14.85;;;;;;;20.22;59.92;96636.13;10533048;28;20048;-31
2022/09/17 13:17:25;;;;;;;27.88;15.68;;;;;;;20.22;59.30;96634.44;10538203;28;20504;-28
2022/09/17 13:22:29;;;;;;;28.17;14.18;;;;;;;20.21;59.25;96617.50;10532200;28;20073;-28
2022/09/17 13:27:31;;;;;;;23.90;11.27;;;;;;;22.09;54.36;96611.84;10544163;28;20043;-29
2022/09/17 13:32:31;;;;;;;27.10;13.82;;;;;;;20.67;58.12;96614.50;10539882;28;20040;-28
2022/09/17 13:37:54;;;;;;;21.13;13.20;;;;;;;20.14;59.79;96609.94;10522347;28;20388;-28
2022/09/17 13:43:07;;;;;;;17.20;8.65;;;;;;;20.06;58.59;96614.22;10528179;28;20039;-29
2022/09/17 13:48:10;;;;;;;9.35;5.82;;;;;;;19.84;56.46;96620.31;10518767;28;20455;-28
2022/09/17 13:53:13;;;;;;;8.50;4.15;;;;;;;19.71;54.83;96616.16;10521980;28;20032;-27
2022/09/17 13:58:19;;;;;;;5.60;3.28;;;;;;;19.68;54.42;96623.78;10524791;28;20492;-26
2022/09/17 14:03:43;;;;;;;4.28;2.50;;;;;;;19.66;55.53;96625.50;10533511;28;20391;-28
2022/09/17 14:08:43;;;;;;;3.67;2.63;;;;;;;19.80;55.31;96621.16;10526144;28;20495;-26
2022/09/17 14:13:44;;;;;;;4.60;2.45;;;;;;;19.93;53.08;96620.25;10535292;27;20040;-27
2022/09/17 14:18:57;;;;;;;2.22;1.67;;;;;;;19.92;54.44;96623.63;10528793;28;20480;-27
2022/09/17 14:24:12;;;;;;;4.47;2.03;;;;;;;19.92;54.02;96623.63;10533468;28;20024;-27
2022/09/17 14:29:28;;;;;;;17.73;2.22;;;;;;;19.81;52.87;96612.69;10517531;28;20467;-26
2022/09/17 14:34:30;;;;;;;2.35;1.52;;;;;;;19.77;52.75;96618.66;10536411;28;20097;-28
2022/09/17 14:39:38;;;;;;;2.90;1.30;;;;;;;19.64;50.87;96617.03;10541378;28;20032;-26
2022/09/17 14:44:48;;;;;;;7.10;1.05;;;;;;;19.50;51.96;96623.91;10539695;28;20036;-27
2022/09/17 14:49:49;;;;;;;1.77;1.20;;;;;;;19.69;51.16;96616.16;10533027;28;20040;-26
2022/09/17 14:55:17;;;;;;;2.03;1.08;;;;;;;19.74;50.92;96616.97;10529851;28;20547;-27
2022/09/17 15:00:21;;;;;;;3.97;1.25;;;;;;;19.66;50.48;96617.88;10530227;28;20554;-26
2022/09/17 15:05:34;;;;;;;2.08;0.88;;;;;;;19.70;51.16;96617.00;10537593;28;20039;-27
2022/09/17 15:10:44;;;;;;;1.77;1.20;;;;;;;19.76;51.80;96622.06;10532961;28;20472;-26
2022/09/17 15:16:22;;;;;;;1.42;0.90;;;;;;;19.78;51.62;96630.50;10539360;28;20030;-26
2022/09/17 15:21:51;;;;;;;1.75;1.10;;;;;;;19.64;50.80;96627.19;10539642;28;20037;-26
2022/09/17 15:26:55;;;;;;;1.38;1.00;;;;;;;19.54;50.64;96630.66;10540340;28;20044;-26
2022/09/17 15:31:55;;;;;;;2.85;1.17;;;;;;;19.33;50.74;96618.91;10535489;28;20164;-27
2022/09/17 15:37:19;;;;;;;0.85;0.75;;;;;;;19.30;50.97;96628.22;10516611;28;20159;-27
2022/09/17 15:42:27;;;;;;;1.77;1.10;;;;;;;19.27;50.16;96620.63;10514019;28;20063;-30
2022/09/17 15:47:55;;;;;;;2.45;1.25;;;;;;;19.26;49.81;96624.03;10519747;28;20063;-26
2022/09/17 15:53:07;;;;;;;4.43;1.20;;;;;;;19.14;49.46;96629.09;10532476;28;20052;-27
2022/09/17 15:58:24;;;;;;;1.45;0.82;;;;;;;19.18;49.41;96638.41;10528636;28;20447;-26
2022/09/17 16:03:37;;;;;;;1.02;0.90;;;;;;;19.22;48.91;96642.63;10532809;28;20120;-28
2022/09/17 16:08:37;;;;;;;1.85;0.93;;;;;;;19.12;48.87;96638.44;10522805;28;20036;-28
2022/09/17 16:13:37;;;;;;;1.53;1.00;;;;;;;19.17;48.32;96651.94;10543367;28;20512;-28
2022/09/17 16:18:38;;;;;;;3.63;1.23;;;;;;;19.34;49.55;96663.75;10522860;28;20025;-28
2022/09/17 16:23:38;;;;;;;2.33;0.80;;;;;;;19.14;48.07;96664.63;10516519;28;20021;-28
2022/09/17 16:28:39;;;;;;;3.43;0.80;;;;;;;18.98;48.57;96658.78;10516566;28;20036;-29
2022/09/17 16:33:40;;;;;;;2.35;0.55;;;;;;;19.01;47.94;96663.84;10510095;28;20162;-27
2022/09/17 16:38:40;;;;;;;2.38;0.93;;;;;;;18.95;48.35;96668.94;10520514;28;20033;-28
2022/09/17 16:43:40;;;;;;;5.43;0.73;;;;;;;18.97;48.47;96672.31;10519228;28;20451;-28
2022/09/17 16:48:43;;;;;;;2.37;1.10;;;;;;;18.98;48.43;96678.22;10519328;28;20295;-28
2022/09/17 16:53:43;;;;;;;1.88;1.10;;;;;;;18.92;48.88;96690.94;10519343;28;20039;-28
2022/09/17 16:58:44;;;;;;;2.43;1.57;;;;;;;18.88;48.16;96691.78;10513994;28;20028;-27
2022/09/17 17:03:47;;;;;;;2.55;0.95;;;;;;;18.91;48.67;96702.75;10519146;28;20055;-28
2022/09/17 17:08:48;;;;;;;3.88;1.70;;;;;;;18.90;48.28;96705.28;10550256;28;20038;-27
2022/09/17 17:13:48;;;;;;;1.67;0.90;;;;;;;18.87;48.31;96707.84;10536674;28;20039;-28
2022/09/17 17:18:52;;;;;;;2.37;1.10;;;;;;;18.87;48.51;96711.25;10541656;28;20285;-28
2022/09/17 17:23:52;;;;;;;2.25;1.08;;;;;;;18.83;49.34;96718.88;10525656;28;20377;-28
2022/09/17 17:28:52;;;;;;;1.70;0.85;;;;;;;18.85;49.04;96717.16;10525050;28;20044;-28
2022/09/17 17:33:53;;;;;;;1.53;0.70;;;;;;;18.94;49.45;96723.06;10529528;28;20461;-27
2022/09/17 17:38:58;;;;;;;4.53;1.27;;;;;;;19.05;49.43;96730.63;10542323;28;20024;-28
2022/09/17 17:43:58;;;;;;;5.05;0.98;;;;;;;18.88;49.72;96732.38;10539958;28;20036;-29
2022/09/17 17:48:59;;;;;;;2.93;0.90;;;;;;;18.84;49.62;96735.75;10550095;28;20046;-29
2022/09/17 17:53:59;;;;;;;2.93;1.50;;;;;;;18.86;49.92;96740.00;10535867;28;20024;-27
2022/09/17 17:59:00;;;;;;;7.68;2.67;;;;;;;18.83;50.31;96752.66;10538521;28;20028;-28
2022/09/17 18:04:02;;;;;;;3.92;2.45;;;;;;;18.81;50.71;96750.97;10535027;28;20039;-28
2022/09/17 18:09:03;;;;;;;5.95;3.03;;;;;;;18.80;50.90;96759.44;10529531;28;20173;-28
2022/09/17 18:14:04;;;;;;;8.25;5.82;;;;;;;18.80;51.13;96769.56;10540929;28;20085;-29
2022/09/17 18:19:05;;;;;;;5.60;3.83;;;;;;;18.74;51.52;96765.34;10537976;28;20499;-27
2022/09/17 18:24:05;;;;;;;5.07;3.08;;;;;;;18.76;51.48;96783.94;10530792;27;20126;-28
2022/09/17 18:29:06;;;;;;;2.50;1.65;;;;;;;18.78;51.21;96776.34;10537764;28;20036;-29
2022/09/17 18:34:10;;;;;;;3.33;1.67;;;;;;;18.73;51.57;96785.63;10536572;28;20039;-28
2022/09/17 18:39:13;;;;;;;3.63;1.80;;;;;;;18.72;51.74;96802.56;10533096;28;20428;-28
2022/09/17 18:44:14;;;;;;;6.82;2.95;;;;;;;18.69;52.45;96816.94;10542388;28;20027;-28
2022/09/17 18:49:14;;;;;;;6.13;2.97;;;;;;;18.66;52.73;96816.94;10542224;28;20036;-28
2022/09/17 18:54:15;;;;;;;6.88;3.75;;;;;;;18.62;52.75;96817.75;10540212;28;20032;-28
2022/09/17 18:59:15;;;;;;;6.33;3.50;;;;;;;18.60;52.66;96822.81;10536071;28;20458;-28
2022/09/17 19:04:15;;;;;;;5.63;2.50;;;;;;;18.59;52.53;96823.66;10520934;28;20032;-29
2022/09/17 19:09:16;;;;;;;4.97;2.00;;;;;;;18.60;52.18;96834.66;10528566;28;20289;-29
2022/09/17 19:14:16;;;;;;;6.28;2.15;;;;;;;18.57;51.84;96838.03;10537151;28;20807;-28
2022/09/17 19:19:17;;;;;;;3.40;1.40;;;;;;;18.54;51.86;96850.72;10545208;28;20831;-29
2022/09/17 19:24:17;;;;;;;3.58;1.13;;;;;;;18.57;51.77;96857.50;10540782;28;20031;-28
2022/09/17 19:29:18;;;;;;;3.87;0.97;;;;;;;18.51;51.78;96863.38;10546091;28;20039;-28
2022/09/17 19:34:18;;;;;;;3.70;0.83;;;;;;;18.50;51.95;96859.16;10524063;28;20407;-27
2022/09/17 19:39:18;;;;;;;2.40;0.70;;;;;;;18.49;51.75;96860.00;10537425;28;20363;-28
2022/09/17 19:44:19;;;;;;;2.83;0.90;;;;;;;18.48;51.71;96857.44;10530290;28;20043;-29
2022/09/17 19:49:19;;;;;;;1.60;0.47;;;;;;;18.45;51.83;96863.38;10532140;28;20032;-28
2022/09/17 19:54:19;;;;;;;1.40;0.53;;;;;;;18.43;51.98;96865.03;10539765;28;20036;-28
2022/09/17 19:59:20;;;;;;;2.95;0.70;;;;;;;18.41;52.38;96855.78;10537471;28;20304;-28
2022/09/17 20:04:20;;;;;;;3.33;0.63;;;;;;;18.41;52.56;96863.38;10539461;28;20039;-28
2022/09/17 20:09:21;;;;;;;1.38;1.00;;;;;;;18.39;52.60;96863.38;10529416;28;20040;-29
2022/09/17 20:14:21;;;;;;;1.37;0.70;;;;;;;18.45;52.36;96867.59;10525825;28;20047;-27
2022/09/17 20:19:21;;;;;;;2.35;0.65;;;;;;;18.47;52.46;96861.69;10528622;28;20035;-28
2022/09/17 20:24:22;;;;;;;2.50;1.13;;;;;;;18.49;52.58;96862.53;10524705;28;20036;-28
2022/09/17 20:29:22;;;;;;;2.33;0.90;;;;;;;18.47;52.74;96861.69;10524763;28;20027;-28
2022/09/17 20:34:22;;;;;;;1.53;0.90;;;;;;;18.46;52.63;96867.59;10518001;28;20286;-28
2022/09/17 20:39:23;;;;;;;2.63;0.90;;;;;;;18.49;52.79;96864.25;10522988;28;20031;-29
2022/09/17 20:44:23;;;;;;;2.67;0.67;;;;;;;18.79;52.37;96864.28;10525647;28;20048;-28
2022/09/17 20:49:24;;;;;;;1.70;0.70;;;;;;;19.01;51.81;96858.38;10513412;28;20032;-28
2022/09/17 20:54:24;;;;;;;1.42;0.80;;;;;;;19.15;51.75;96869.34;10546625;28;20034;-29
2022/09/17 20:59:28;;;;;;;1.13;0.70;;;;;;;19.21;51.57;96869.38;10562470;28;20058;-29
2022/09/17 21:04:29;;;;;;;3.05;1.10;;;;;;;19.22;51.98;96871.94;10539450;28;20028;-29
2022/09/17 21:09:29;;;;;;;2.00;0.87;;;;;;;19.38;53.12;96872.75;10533022;28;20040;-28
2022/09/17 21:14:29;;;;;;;1.93;0.80;;;;;;;19.42;53.36;96869.38;10534699;28;20130;-28
2022/09/17 21:19:30;;;;;;;1.37;0.60;;;;;;;19.36;52.21;96880.41;10537445;28;20669;-28
2022/09/17 21:24:30;;;;;;;1.73;0.65;;;;;;;19.32;52.15;96872.75;10525049;28;20516;-28
2022/09/17 21:29:31;;;;;;;0.93;0.60;;;;;;;19.33;52.39;96885.47;10541957;28;20036;-28
2022/09/17 21:34:31;;;;;;;2.20;0.90;;;;;;;19.31;52.57;96883.75;10532128;28;20036;-28
2022/09/17 21:39:33;;;;;;;2.40;0.60;;;;;;;19.33;52.81;96870.22;10543421;28;20024;-28
2022/09/17 21:44:34;;;;;;;1.58;0.68;;;;;;;19.32;52.97;96875.28;10523815;28;20378;-27
2022/09/17 21:49:34;;;;;;;2.70;0.80;;;;;;;19.34;52.73;96866.84;10536649;28;20035;-27
2022/09/17 21:54:35;;;;;;;1.30;0.60;;;;;;;19.33;52.83;96861.78;10539532;28;20039;-27
2022/09/17 21:59:35;;;;;;;1.27;0.68;;;;;;;19.33;52.90;96864.31;10540214;28;20047;-28
2022/09/17 22:04:35;;;;;;;2.03;0.83;;;;;;;19.47;54.45;96862.59;10534324;28;20042;-28
2022/09/17 22:09:36;;;;;;;2.00;0.90;;;;;;;19.52;54.32;96874.44;10531743;28;20043;-28
2022/09/17 22:14:37;;;;;;;1.87;0.60;;;;;;;19.48;53.00;96869.34;10535721;28;20029;-28
2022/09/17 22:19:38;;;;;;;1.55;0.60;;;;;;;19.42;53.33;96874.47;10533758;28;20281;-28
2022/09/17 22:24:42;;;;;;;2.60;0.60;;;;;;;19.42;53.09;96871.94;10534130;28;20033;-29
2022/09/17 22:29:42;;;;;;;1.30;0.60;;;;;;;19.42;53.25;96869.38;10548988;28;20286;-28
2022/09/17 22:34:43;;;;;;;2.20;0.50;;;;;;;19.41;53.46;96880.41;10535889;28;20032;-29
2022/09/17 22:39:43;;;;;;;0.73;0.50;;;;;;;19.39;53.61;96884.59;10546177;28;20491;-28
2022/09/17 22:44:43;;;;;;;2.80;0.60;;;;;;;19.41;53.53;96882.94;10541004;28;20032;-28
2022/09/17 22:49:44;;;;;;;1.43;0.50;;;;;;;19.41;53.64;96875.31;10535362;28;20036;-28
2022/09/17 22:54:44;;;;;;;1.67;0.60;;;;;;;19.39;53.62;96874.44;10547604;28;20032;-28
2022/09/17 22:59:44;;;;;;;1.30;0.80;;;;;;;19.55;55.07;96876.13;10536751;28;20294;-28
2022/09/17 23:04:45;;;;;;;2.20;0.60;;;;;;;19.56;54.69;96873.59;10539446;28;20122;-28
2022/09/17 23:09:45;;;;;;;0.63;0.53;;;;;;;19.58;53.90;96876.97;10536779;28;20792;-29
2022/09/17 23:14:46;;;;;;;1.15;0.40;;;;;;;19.56;53.56;96881.22;10541888;28;20314;-28
2022/09/17 23:19:46;;;;;;;1.10;0.70;;;;;;;19.53;53.64;96882.91;10535940;28;20036;-28
2022/09/17 23:24:46;;;;;;;0.80;0.60;;;;;;;19.51;53.76;96882.06;10527295;28;20438;-28
2022/09/17 23:29:47;;;;;;;1.13;0.60;;;;;;;19.52;53.81;96888.84;10535802;28;20051;-27
2022/09/17 23:34:47;;;;;;;1.57;0.50;;;;;;;19.46;54.13;96884.63;10535090;28;20490;-29